Allport, Arkansas
Current Conditions -  °F | °C
As of 2:15 PM on Friday 28 Nov 2014 (Local Time) from KSGT Reporting Station
Clear Clear  
Wind Chill: 54°   Ceiling: Unl
Heat Index: 54°   Visibility: 1.7mi
Dew Point: 36°   Wind: 15mph
Humidity: 51%   Direction: 160°SSE
Pressure: 30.18"   Gusts: 18mph
Location:  34.5894°N, 91.9107°W
Report Text: KSGT 282015Z AUTO 16013G16KT 1 3/4SM CLR 12/02 A3018 RMK AO1
Loading
Personal Weather Stations






























Interactive Weather Map New forecast layout! Learn more

10-Day Weather Forecast

Advertisements
Track Severe Weather on mobile